createdAt,value
2022-11-27T00:00:15.155Z,8.00
2022-11-27T00:03:12.577Z,8.20
2022-11-27T00:11:04.762Z,6.90
2022-11-27T00:13:31.197Z,7.10
2022-11-27T00:15:58.085Z,8.70
2022-11-27T00:18:24.674Z,8.10
2022-11-27T00:20:51.108Z,8.10
2022-11-27T00:23:17.514Z,7.30
2022-11-27T00:25:53.339Z,5.80
2022-11-27T00:28:19.813Z,5.10
2022-11-27T00:30:46.418Z,4.20
2022-11-27T00:33:12.984Z,5.30
2022-11-27T00:35:39.537Z,5.40
2022-11-27T00:38:05.893Z,6.60
2022-11-27T00:40:32.505Z,6.10
2022-11-27T00:42:58.845Z,6.40
2022-11-27T00:45:25.197Z,6.20
2022-11-27T00:47:51.705Z,6.00
2022-11-27T00:50:18.243Z,6.80
2022-11-27T00:52:44.654Z,6.90
2022-11-27T00:55:12.129Z,7.10
2022-11-27T00:57:38.468Z,6.50
2022-11-27T01:00:05.564Z,6.60
2022-11-27T01:02:31.956Z,6.70
2022-11-27T01:04:58.679Z,6.20
2022-11-27T01:07:25.655Z,8.60
2022-11-27T01:09:52.109Z,10.00
2022-11-27T01:12:18.599Z,9.00
2022-11-27T01:14:44.904Z,11.20
2022-11-27T01:17:11.272Z,10.70
2022-11-27T01:19:37.644Z,8.90
2022-11-27T01:22:03.966Z,7.30
2022-11-27T01:24:30.348Z,8.20
2022-11-27T01:26:56.885Z,7.00
2022-11-27T01:29:23.420Z,7.30
2022-11-27T01:31:49.921Z,7.50
2022-11-27T01:34:17.754Z,8.30
2022-11-27T01:36:44.356Z,8.20
2022-11-27T01:39:17.936Z,7.30
2022-11-27T01:41:45.212Z,8.80
2022-11-27T01:44:23.574Z,7.30
2022-11-27T01:46:52.142Z,11.60
2022-11-27T01:49:38.815Z,11.50
2022-11-27T01:52:25.425Z,12.40
2022-11-27T01:55:00.968Z,12.30
2022-11-27T01:57:35.280Z,11.90
2022-11-27T02:00:03.065Z,11.60
2022-11-27T02:02:39.916Z,10.90
2022-11-27T02:05:06.914Z,9.90
2022-11-27T02:07:33.637Z,10.20
2022-11-27T02:10:00.151Z,9.90
2022-11-27T02:12:29.450Z,8.40
2022-11-27T02:15:01.141Z,7.80
2022-11-27T02:17:27.560Z,8.30
2022-11-27T02:19:54.175Z,7.90
2022-11-27T02:22:39.523Z,8.10
2022-11-27T02:25:11.337Z,6.70
2022-11-27T02:27:56.042Z,7.90
2022-11-27T02:30:22.647Z,6.80
2022-11-27T02:32:57.746Z,7.30
2022-11-27T02:35:30.329Z,9.40
2022-11-27T02:37:59.436Z,8.90
2022-11-27T02:40:31.596Z,8.60
2022-11-27T02:43:36.792Z,8.60
2022-11-27T02:46:04.585Z,10.70
2022-11-27T02:48:33.678Z,9.40
2022-11-27T02:51:01.666Z,9.40
2022-11-27T02:53:30.550Z,9.80
2022-11-27T02:55:57.926Z,10.00
2022-11-27T02:58:25.667Z,7.50
2022-11-27T03:00:52.176Z,9.00
2022-11-27T03:03:21.180Z,9.30
2022-11-27T03:05:50.065Z,9.30
2022-11-27T03:08:23.094Z,8.60
2022-11-27T03:10:51.970Z,8.10
2022-11-27T03:13:18.516Z,7.40
2022-11-27T03:21:40.574Z,7.80
2022-11-27T03:24:07.644Z,7.80
2022-11-27T03:26:34.180Z,7.30
2022-11-27T03:29:03.458Z,8.40
2022-11-27T03:31:30.213Z,10.00
2022-11-27T03:33:57.094Z,8.20
2022-11-27T03:36:23.879Z,7.00
2022-11-27T03:38:51.807Z,7.60
2022-11-27T03:41:31.238Z,7.60
2022-11-27T03:44:00.639Z,7.90
2022-11-27T03:46:31.830Z,6.70
2022-11-27T03:49:24.564Z,7.00
2022-11-27T03:51:57.266Z,7.30
2022-11-27T03:54:29.637Z,8.30
2022-11-27T03:56:58.867Z,7.20
2022-11-27T03:59:27.821Z,7.90
2022-11-27T04:01:54.233Z,7.10
2022-11-27T04:04:20.787Z,8.00
2022-11-27T04:06:47.311Z,7.70
2022-11-27T04:09:13.763Z,8.70
2022-11-27T04:11:40.307Z,6.70
2022-11-27T04:14:06.759Z,6.50
2022-11-27T04:16:33.263Z,7.90
2022-11-27T04:18:59.805Z,7.40
2022-11-27T04:21:26.158Z,6.80
2022-11-27T04:23:52.492Z,6.40
2022-11-27T04:26:19.307Z,5.80
2022-11-27T04:28:45.642Z,7.30
2022-11-27T04:31:12.081Z,8.00
2022-11-27T04:33:38.606Z,8.70
2022-11-27T04:36:05.271Z,7.90
2022-11-27T04:38:31.688Z,7.10
2022-11-27T04:40:58.215Z,7.50
2022-11-27T04:43:24.645Z,6.90
2022-11-27T04:45:51.094Z,9.00
2022-11-27T04:48:17.458Z,9.30
2022-11-27T04:50:44.049Z,13.40
2022-11-27T04:53:10.406Z,12.40
2022-11-27T04:55:36.817Z,10.60
2022-11-27T04:58:03.274Z,10.40
2022-11-27T05:00:29.726Z,10.30
2022-11-27T05:02:56.385Z,9.40
2022-11-27T05:05:22.807Z,9.40
2022-11-27T05:07:49.307Z,8.90
2022-11-27T05:10:15.837Z,7.80
2022-11-27T05:12:42.356Z,8.60
2022-11-27T05:15:08.965Z,7.90
2022-11-27T05:17:35.488Z,9.30
2022-11-27T05:20:01.963Z,6.60
2022-11-27T05:22:28.701Z,7.20
2022-11-27T05:24:55.448Z,7.90
2022-11-27T05:27:21.878Z,8.00
2022-11-27T05:29:48.232Z,9.90
2022-11-27T05:32:14.842Z,7.90
2022-11-27T05:34:41.458Z,7.40
2022-11-27T05:37:08.035Z,9.10
2022-11-27T05:39:35.066Z,10.90
2022-11-27T05:42:01.496Z,7.90
2022-11-27T05:44:27.951Z,8.60
2022-11-27T05:46:54.466Z,7.80
2022-11-27T05:49:21.109Z,8.80
2022-11-27T05:51:51.332Z,9.60
2022-11-27T05:54:18.376Z,12.30
2022-11-27T05:56:45.014Z,11.60
2022-11-27T05:59:12.056Z,8.00
2022-11-27T06:01:38.574Z,8.50
2022-11-27T06:04:05.037Z,9.30
2022-11-27T06:06:31.403Z,7.70
2022-11-27T06:08:57.892Z,8.50
2022-11-27T06:11:24.314Z,8.00
2022-11-27T06:13:50.758Z,8.20
2022-11-27T06:16:18.805Z,9.90
2022-11-27T06:18:45.453Z,11.90
2022-11-27T06:21:13.645Z,10.30
2022-11-27T06:23:41.431Z,21.00
2022-11-27T06:26:11.032Z,31.00
2022-11-27T06:28:37.548Z,32.40
2022-11-27T06:31:17.222Z,21.30
2022-11-27T06:33:45.103Z,13.20
2022-11-27T06:36:11.699Z,9.50
2022-11-27T06:38:38.544Z,12.20
2022-11-27T06:41:06.610Z,12.40
2022-11-27T06:43:33.762Z,9.10
2022-11-27T06:46:00.812Z,10.30
2022-11-27T06:48:27.357Z,10.40
2022-11-27T06:50:53.998Z,10.20
2022-11-27T06:53:20.457Z,11.20
2022-11-27T06:55:46.824Z,12.60
2022-11-27T06:58:14.101Z,16.80
2022-11-27T07:00:40.808Z,15.60
2022-11-27T07:03:07.149Z,12.00
2022-11-27T08:07:09.743Z,9.60
2022-11-27T08:09:37.257Z,9.60
2022-11-27T08:12:03.956Z,9.30
2022-11-27T08:14:30.911Z,7.90
2022-11-27T08:16:57.350Z,8.10
2022-11-27T08:19:23.872Z,8.00
2022-11-27T08:21:50.510Z,8.20
2022-11-27T08:24:16.885Z,8.80
2022-11-27T08:26:43.382Z,9.60
2022-11-27T08:29:11.361Z,18.00
2022-11-27T08:31:37.819Z,20.80
2022-11-27T08:34:04.312Z,26.00
2022-11-27T08:36:30.844Z,41.90
2022-11-27T08:38:57.194Z,55.90
2022-11-27T08:41:23.610Z,13.10
2022-11-27T08:43:49.985Z,11.80
2022-11-27T08:46:16.426Z,11.80
2022-11-27T08:48:43.034Z,13.10
2022-11-27T08:51:11.404Z,11.60
2022-11-27T08:53:38.106Z,11.70
2022-11-27T08:56:05.744Z,10.40
2022-11-27T08:58:32.227Z,12.60
2022-11-27T09:00:58.626Z,10.70
2022-11-27T09:03:25.095Z,14.30
2022-11-27T09:05:51.499Z,12.00
2022-11-27T09:08:20.756Z,11.40
2022-11-27T09:10:47.174Z,10.10
2022-11-27T09:13:13.696Z,14.70
2022-11-27T09:15:40.231Z,29.10
2022-11-27T09:18:06.665Z,24.90
2022-11-27T09:20:33.606Z,15.60
2022-11-27T09:23:01.984Z,13.60
2022-11-27T09:25:28.638Z,11.90
2022-11-27T09:27:55.062Z,16.90
2022-11-27T09:30:21.488Z,17.80
2022-11-27T09:32:48.131Z,66.10
2022-11-27T09:35:14.700Z,22.40
2022-11-27T09:37:41.133Z,21.00
2022-11-27T09:40:10.389Z,23.90
2022-11-27T09:42:42.357Z,19.90
2022-11-27T09:45:12.793Z,18.30
2022-11-27T09:47:41.781Z,25.40
2022-11-27T09:50:13.023Z,23.80
2022-11-27T09:52:39.659Z,31.20
2022-11-27T09:55:24.425Z,21.10
2022-11-27T09:58:06.381Z,13.60
2022-11-27T10:00:33.262Z,13.70
2022-11-27T10:02:59.730Z,17.60
2022-11-27T10:05:33.092Z,16.20
2022-11-27T10:08:08.536Z,32.90
2022-11-27T10:10:54.388Z,44.70
2022-11-27T10:13:23.833Z,24.60
2022-11-27T10:16:03.091Z,24.80
2022-11-27T10:18:34.003Z,35.00
2022-11-27T10:23:36.944Z,32.50
2022-11-27T10:26:05.910Z,23.50
2022-11-27T10:28:47.803Z,30.10
2022-11-27T10:31:17.753Z,23.90
2022-11-27T10:33:44.176Z,31.30
2022-11-27T10:36:14.671Z,31.90
2022-11-27T10:38:42.127Z,39.10
2022-11-27T10:41:34.295Z,21.90
2022-11-27T10:44:03.259Z,62.30
2022-11-27T10:46:30.856Z,27.90
2022-11-27T10:48:57.568Z,14.40
2022-11-27T10:51:28.728Z,12.40
2022-11-27T10:53:55.440Z,12.10
2022-11-27T10:56:34.133Z,17.20
2022-11-27T10:59:03.107Z,22.00
2022-11-27T11:01:40.462Z,22.90
2022-11-27T11:04:31.404Z,24.40
2022-11-27T11:06:54.606Z,28.60
2022-11-27T11:09:23.126Z,25.50
2022-11-27T11:11:50.179Z,37.30
2022-11-27T11:14:24.266Z,27.00
2022-11-27T11:16:51.346Z,29.70
2022-11-27T11:19:21.926Z,42.00
2022-11-27T11:21:48.722Z,31.70
2022-11-27T11:24:18.439Z,21.80
2022-11-27T11:26:47.290Z,16.40
2022-11-27T11:29:19.742Z,17.00
2022-11-27T11:31:46.220Z,16.20
2022-11-27T11:34:26.123Z,17.40
2022-11-27T11:36:54.609Z,17.90
2022-11-27T11:39:26.674Z,25.20
2022-11-27T11:41:53.309Z,34.30
2022-11-27T11:44:22.098Z,21.80
2022-11-27T11:46:52.585Z,37.70
2022-11-27T11:49:21.821Z,32.60
2022-11-27T11:52:03.634Z,31.50
2022-11-27T11:54:39.438Z,17.90
2022-11-27T11:57:17.269Z,13.80
2022-11-27T11:59:51.197Z,12.20
2022-11-27T12:02:24.056Z,18.90
2022-11-27T12:05:08.414Z,25.80
2022-11-27T12:07:53.009Z,17.60
2022-11-27T12:10:46.442Z,15.60
2022-11-27T12:13:22.331Z,10.50
2022-11-27T12:15:54.976Z,10.30
2022-11-27T12:18:28.508Z,10.30
2022-11-27T12:21:04.225Z,10.90
2022-11-27T12:23:50.767Z,12.40
2022-11-27T12:26:21.258Z,17.90
2022-11-27T12:29:03.155Z,13.90
2022-11-27T12:31:49.435Z,16.00
2022-11-27T12:34:39.237Z,18.70
2022-11-27T12:37:13.909Z,19.00
2022-11-27T12:39:59.332Z,16.40
2022-11-27T12:42:34.370Z,15.50
2022-11-27T12:45:01.009Z,16.10
2022-11-27T12:47:40.204Z,23.40
2022-11-27T12:50:12.841Z,14.60
2022-11-27T12:52:41.197Z,15.20
2022-11-27T12:55:12.238Z,19.50
2022-11-27T12:57:53.215Z,13.60
2022-11-27T13:02:56.085Z,15.30
2022-11-27T13:05:25.247Z,16.10
2022-11-27T13:07:56.001Z,22.40
2022-11-27T13:10:31.695Z,12.90
2022-11-27T13:13:04.176Z,14.80
2022-11-27T13:15:34.084Z,18.50
2022-11-27T13:18:05.543Z,17.00
2022-11-27T13:20:34.503Z,17.20
2022-11-27T13:23:00.989Z,14.20
2022-11-27T13:25:29.788Z,19.50
2022-11-27T13:27:57.433Z,20.10
2022-11-27T13:30:25.818Z,16.10
2022-11-27T13:32:56.572Z,19.20
2022-11-27T13:35:28.786Z,22.80
2022-11-27T13:38:15.503Z,31.30
2022-11-27T13:40:43.752Z,27.20
2022-11-27T13:43:19.341Z,26.80
2022-11-27T13:45:46.181Z,23.20
2022-11-27T13:48:24.308Z,28.80
2022-11-27T13:50:53.584Z,33.60
2022-11-27T13:53:28.998Z,28.90
2022-11-27T13:55:57.221Z,35.50
2022-11-27T13:58:27.575Z,24.10
2022-11-27T14:00:54.284Z,20.30
2022-11-27T14:15:04.643Z,23.80
2022-11-27T14:17:40.187Z,29.70
2022-11-27T14:20:12.001Z,29.50
2022-11-27T14:23:10.447Z,32.50
2022-11-27T14:25:35.892Z,27.00
2022-11-27T14:28:14.142Z,24.90
2022-11-27T14:30:51.763Z,25.00
2022-11-27T14:33:30.937Z,26.40
2022-11-27T14:35:59.305Z,21.30
2022-11-27T14:38:26.820Z,35.60
2022-11-27T14:40:54.474Z,45.70
2022-11-27T14:43:28.350Z,44.40
2022-11-27T14:45:56.872Z,39.20
2022-11-27T14:48:23.283Z,39.10
2022-11-27T14:50:50.608Z,34.70
2022-11-27T14:53:18.659Z,39.40
2022-11-27T14:55:45.613Z,22.10
2022-11-27T15:14:22.121Z,20.80
2022-11-27T15:17:13.765Z,30.80
2022-11-27T15:23:49.123Z,22.30
2022-11-27T15:26:28.382Z,16.90
2022-11-27T15:28:56.722Z,18.00
2022-11-27T15:31:26.959Z,19.00
2022-11-27T15:33:54.364Z,16.50
2022-11-27T15:36:21.019Z,16.40
2022-11-27T15:38:50.270Z,16.50
2022-11-27T15:41:27.406Z,17.50
2022-11-27T15:43:55.066Z,22.00
2022-11-27T15:46:26.308Z,19.20
2022-11-27T15:51:19.178Z,19.50
2022-11-27T15:53:46.882Z,23.20
2022-11-27T15:56:13.658Z,23.00
2022-11-27T15:58:41.082Z,24.50
2022-11-27T16:01:08.213Z,24.30
2022-11-27T16:03:34.762Z,27.10
2022-11-27T16:06:04.687Z,29.70
2022-11-27T16:08:31.089Z,35.70
2022-11-27T16:11:01.797Z,42.40
2022-11-27T16:13:28.542Z,29.20
2022-11-27T16:15:55.041Z,50.30
2022-11-27T16:18:21.451Z,52.90
2022-11-27T16:20:47.824Z,51.50
2022-11-27T16:23:14.273Z,57.30
2022-11-27T16:25:40.662Z,95.00
2022-11-27T16:28:07.243Z,130.40
2022-11-27T16:30:33.782Z,66.80
2022-11-27T16:33:00.414Z,50.50
2022-11-27T16:35:27.062Z,62.10
2022-11-27T16:37:53.597Z,80.40
2022-11-27T16:40:20.124Z,98.80
2022-11-27T16:42:46.713Z,60.10
2022-11-27T16:45:13.197Z,62.90
2022-11-27T16:47:39.947Z,40.00
2022-11-27T16:50:06.989Z,44.70
2022-11-27T16:52:33.625Z,40.00
2022-11-27T16:55:00.052Z,30.40
2022-11-27T16:57:27.546Z,31.00
2022-11-27T16:59:54.169Z,34.30
2022-11-27T17:02:20.752Z,34.50
2022-11-27T17:04:47.531Z,34.00
2022-11-27T17:07:13.976Z,30.90
2022-11-27T17:09:41.754Z,33.10
2022-11-27T17:12:08.259Z,34.30
2022-11-27T17:14:36.294Z,35.10
2022-11-27T17:17:05.056Z,39.90
2022-11-27T17:19:31.522Z,38.50
2022-11-27T17:21:58.067Z,43.30
2022-11-27T17:24:25.588Z,39.20
2022-11-27T17:26:54.746Z,35.90
2022-11-27T17:29:32.209Z,37.90
2022-11-27T17:32:01.821Z,36.90
2022-11-27T17:34:28.382Z,48.10
2022-11-27T17:36:56.964Z,40.80
2022-11-27T17:39:23.620Z,32.30
2022-11-27T17:41:50.135Z,53.30
2022-11-27T17:44:16.675Z,44.40
2022-11-27T17:46:47.718Z,34.50
2022-11-27T17:49:15.285Z,28.30
2022-11-27T17:51:43.863Z,35.50
2022-11-27T17:54:10.621Z,28.60
2022-11-27T17:56:37.134Z,30.30
2022-11-27T17:59:03.948Z,30.00
2022-11-27T18:01:33.026Z,33.90
2022-11-27T18:04:00.558Z,37.00
2022-11-27T18:06:29.944Z,39.40
2022-11-27T18:08:57.602Z,97.30
2022-11-27T18:11:25.935Z,86.70
2022-11-27T18:13:52.916Z,65.80
2022-11-27T18:16:21.274Z,51.10
2022-11-27T18:18:49.078Z,37.10
2022-11-27T18:21:18.750Z,42.60
2022-11-27T18:24:20.772Z,72.50
2022-11-27T18:27:00.557Z,36.30
2022-11-27T18:29:20.069Z,28.30
2022-11-27T18:31:47.242Z,27.50
2022-11-27T18:34:13.677Z,31.40
2022-11-27T18:36:40.173Z,34.10
2022-11-27T18:39:06.708Z,41.80
2022-11-27T18:41:34.096Z,32.60
2022-11-27T18:44:02.164Z,40.20
2022-11-27T18:46:29.332Z,41.60
2022-11-27T18:48:56.020Z,42.90
2022-11-27T18:51:23.598Z,45.20
2022-11-27T18:53:51.959Z,40.20
2022-11-27T18:56:20.656Z,38.30
2022-11-27T18:58:47.834Z,43.60
2022-11-27T19:01:16.057Z,48.40
2022-11-27T19:03:43.056Z,43.20
2022-11-27T19:06:10.561Z,49.00
2022-11-27T19:08:37.480Z,47.00
2022-11-27T19:11:10.004Z,50.00
2022-11-27T19:13:36.810Z,44.80
2022-11-27T19:16:07.590Z,48.70
2022-11-27T19:18:35.905Z,53.30
2022-11-27T19:21:16.128Z,52.90
2022-11-27T19:23:42.871Z,41.70
2022-11-27T19:26:10.422Z,40.70
2022-11-27T19:28:37.883Z,41.00
2022-11-27T19:31:09.542Z,42.10
2022-11-27T19:33:38.106Z,56.20
2022-11-27T19:36:06.207Z,46.60
2022-11-27T19:38:32.813Z,44.10
2022-11-27T19:40:59.423Z,50.50
2022-11-27T19:43:25.825Z,48.50
2022-11-27T19:45:52.382Z,44.00
2022-11-27T19:48:23.072Z,40.40
2022-11-27T19:50:51.120Z,51.40
2022-11-27T19:53:18.251Z,43.70
2022-11-27T19:55:51.673Z,54.90
2022-11-27T19:58:18.074Z,56.20
2022-11-27T20:00:44.480Z,48.60
2022-11-27T20:03:11.214Z,47.70
2022-11-27T20:05:37.910Z,36.00
2022-11-27T20:08:04.457Z,43.10
2022-11-27T20:10:31.023Z,55.60
2022-11-27T20:13:01.045Z,65.00
2022-11-27T20:15:28.559Z,56.80
2022-11-27T20:17:55.113Z,53.70
2022-11-27T20:20:22.259Z,49.80
2022-11-27T20:22:49.802Z,49.20
2022-11-27T20:25:20.435Z,49.30
2022-11-27T20:27:47.819Z,48.40
2022-11-27T20:30:14.285Z,59.80
2022-11-27T20:32:40.760Z,75.10
2022-11-27T20:35:07.394Z,77.20
2022-11-27T20:37:34.343Z,50.50
2022-11-27T20:40:00.879Z,54.40
2022-11-27T20:42:28.482Z,46.80
2022-11-27T20:44:55.175Z,40.60
2022-11-27T20:47:22.045Z,53.60
2022-11-27T20:49:48.456Z,49.50
2022-11-27T20:52:14.890Z,52.10
2022-11-27T20:54:42.444Z,43.40
2022-11-27T20:57:13.492Z,41.80
2022-11-27T21:02:09.981Z,34.70
2022-11-27T21:04:37.500Z,33.20
2022-11-27T21:07:03.931Z,39.30
2022-11-27T21:09:30.464Z,39.50
2022-11-27T21:11:57.205Z,37.40
2022-11-27T21:14:24.467Z,48.00
2022-11-27T21:16:51.376Z,40.80
2022-11-27T21:19:20.163Z,39.00
2022-11-27T21:21:46.931Z,41.20
2022-11-27T21:24:14.005Z,34.50
2022-11-27T21:26:41.751Z,34.10
2022-11-27T21:29:09.319Z,32.00
2022-11-27T21:31:37.722Z,33.50
2022-11-27T21:34:05.515Z,31.10
2022-11-27T21:36:33.533Z,40.20
2022-11-27T21:39:00.820Z,39.20
2022-11-27T21:41:28.580Z,37.30
2022-11-27T21:43:56.315Z,35.80
2022-11-27T21:46:23.583Z,35.00
2022-11-27T21:48:50.971Z,34.10
2022-11-27T21:51:20.384Z,33.80
2022-11-27T21:53:48.278Z,35.30
2022-11-27T21:56:16.320Z,31.40
2022-11-27T21:58:42.916Z,30.50
2022-11-27T22:01:14.624Z,34.50
2022-11-27T22:03:42.987Z,28.70
2022-11-27T22:06:12.125Z,36.90
2022-11-27T22:08:38.870Z,30.50
2022-11-27T22:11:06.427Z,32.10
2022-11-27T22:13:33.256Z,38.50
2022-11-27T22:15:59.684Z,37.20
2022-11-27T22:18:26.198Z,35.80
2022-11-27T22:20:52.666Z,39.10
2022-11-27T22:23:19.626Z,28.90
2022-11-27T22:25:46.034Z,26.40
2022-11-27T22:28:12.374Z,35.10
2022-11-27T22:30:38.748Z,27.10
2022-11-27T22:33:05.210Z,31.10
2022-11-27T22:35:31.790Z,34.00
2022-11-27T22:37:58.561Z,35.20
2022-11-27T22:40:24.938Z,36.10
2022-11-27T22:42:51.473Z,34.00
2022-11-27T22:45:17.846Z,27.00
2022-11-27T22:47:44.448Z,24.20
2022-11-27T22:50:10.879Z,27.70
2022-11-27T22:52:37.334Z,24.70
2022-11-27T22:55:04.359Z,23.40
2022-11-27T22:57:32.962Z,26.50
2022-11-27T22:59:59.297Z,23.50
2022-11-27T23:02:26.558Z,24.50
2022-11-27T23:04:53.163Z,28.00
2022-11-27T23:07:24.828Z,23.10
2022-11-27T23:09:51.890Z,21.60
2022-11-27T23:12:18.415Z,24.60
2022-11-27T23:14:44.978Z,25.40
2022-11-27T23:17:11.507Z,29.00
2022-11-27T23:19:38.133Z,32.10
2022-11-27T23:22:04.503Z,28.90
2022-11-27T23:24:30.901Z,28.10
2022-11-27T23:26:57.272Z,31.90
2022-11-27T23:29:23.741Z,28.70
2022-11-27T23:31:50.505Z,30.40
2022-11-27T23:34:16.918Z,29.10
2022-11-27T23:36:43.682Z,26.80
2022-11-27T23:39:11.525Z,28.60
2022-11-27T23:41:39.842Z,26.10
2022-11-27T23:44:06.258Z,31.70
2022-11-27T23:46:32.949Z,41.00
2022-11-27T23:48:59.667Z,34.40
2022-11-27T23:51:27.575Z,31.30
2022-11-27T23:53:54.166Z,30.30
2022-11-27T23:56:21.731Z,29.20
2022-11-27T23:58:48.291Z,26.50
